Time;durP1;ratioP1;P1;durP2;ratioP2;P2;SDS_P1;SDS_P2;PMS_P1;PMS_P2;Temp;Humidity;BMP_temperature;BMP_pressure;BME280_temperature;BME280_humidity;BME280_pressure;Samples;Min_cycle;Max_cycle;Signal;HPM_P1;HPM_P2
2023/07/08 00:01:19;;;;;;;4.90;2.50;;;24.70;1.00;;;;;;4934474;29;20050;-53
2023/07/08 00:03:46;;;;;;;6.72;2.30;;;24.70;1.00;;;;;;4934669;29;20051;-51
2023/07/08 00:06:22;;;;;;;3.67;1.98;;;24.70;1.00;;;;;;4934105;29;20103;-53
2023/07/08 00:08:49;;;;;;;5.13;2.28;;;24.70;1.00;;;;;;4934601;29;20043;-53
2023/07/08 00:11:17;;;;;;;4.13;1.83;;;24.70;1.00;;;;;;4934582;29;20090;-51
2023/07/08 00:13:44;;;;;;;3.05;1.73;;;24.70;1.00;;;;;;4934520;29;20114;-55
2023/07/08 00:16:14;;;;;;;2.45;1.42;;;24.70;1.00;;;;;;4932326;29;20047;-54
2023/07/08 00:18:41;;;;;;;3.45;2.70;;;24.70;1.00;;;;;;4915600;29;20535;-54
2023/07/08 00:21:10;;;;;;;5.07;2.20;;;24.70;1.00;;;;;;4915361;29;20040;-53
2023/07/08 00:23:37;;;;;;;3.97;2.38;;;24.70;1.00;;;;;;4915542;29;20068;-52
2023/07/08 00:26:20;;;;;;;3.65;1.80;;;24.70;1.00;;;;;;4915121;29;20457;-55
2023/07/08 00:28:47;;;;;;;5.07;1.90;;;24.70;1.00;;;;;;4915639;29;20063;-52
2023/07/08 00:31:14;;;;;;;4.05;2.05;;;24.70;1.00;;;;;;4914002;29;20087;-53
2023/07/08 00:33:41;;;;;;;5.47;1.90;;;24.70;1.00;;;;;;4915390;29;20045;-53
2023/07/08 00:36:12;;;;;;;3.45;2.00;;;24.70;1.00;;;;;;4915383;29;20071;-50
2023/07/08 00:38:44;;;;;;;6.95;2.08;;;24.70;1.00;;;;;;4914317;29;20131;-50
2023/07/08 00:41:21;;;;;;;4.97;2.08;;;24.70;1.00;;;;;;4931261;29;20534;-49
2023/07/08 00:43:54;;;;;;;2.35;1.40;;;24.70;1.00;;;;;;4932882;29;20047;-54
2023/07/08 00:46:26;;;;;;;3.33;1.88;;;24.70;1.00;;;;;;4934035;29;20112;-53
2023/07/08 00:49:08;;;;;;;2.30;1.45;;;24.70;1.00;;;;;;4934244;29;20068;-54
2023/07/08 00:51:39;;;;;;;6.72;2.38;;;24.70;1.00;;;;;;4907377;29;20044;-50
2023/07/08 00:54:12;;;;;;;2.50;1.80;;;24.70;1.00;;;;;;4913745;29;20473;-54
2023/07/08 00:56:58;;;;;;;4.07;1.85;;;24.70;1.00;;;;;;4915023;29;20041;-54
2023/07/08 00:59:35;;;;;;;2.88;1.95;;;24.70;1.00;;;;;;4906191;29;20499;-54
2023/07/08 01:02:09;;;;;;;2.75;1.90;;;24.60;1.00;;;;;;4913773;29;20048;-52
2023/07/08 01:04:44;;;;;;;3.22;2.38;;;24.60;1.00;;;;;;4917569;29;20489;-52
2023/07/08 01:07:11;;;;;;;4.30;2.13;;;24.60;1.00;;;;;;4917522;29;20119;-49
2023/07/08 01:09:45;;;;;;;3.10;2.33;;;24.60;1.00;;;;;;4917271;29;20130;-54
2023/07/08 01:12:17;;;;;;;2.47;1.80;;;24.60;1.00;;;;;;4918443;29;20062;-52
2023/07/08 01:14:45;;;;;;;5.07;2.45;;;24.60;1.00;;;;;;4917623;29;20052;-49
2023/07/08 01:17:13;;;;;;;4.30;1.77;;;24.60;1.00;;;;;;4917059;29;20567;-50
2023/07/08 01:19:42;;;;;;;3.03;1.85;;;24.60;1.00;;;;;;4918639;29;20114;-54
2023/07/08 01:22:09;;;;;;;3.42;2.13;;;24.60;1.00;;;;;;4918567;29;20044;-51
2023/07/08 01:24:40;;;;;;;2.13;1.70;;;24.60;1.00;;;;;;4917034;29;20527;-49
2023/07/08 01:27:10;;;;;;;3.25;1.60;;;24.60;1.00;;;;;;4918481;29;20040;-51
2023/07/08 01:29:37;;;;;;;2.72;1.63;;;24.60;1.00;;;;;;4917038;29;20052;-50
2023/07/08 01:32:05;;;;;;;5.80;3.20;;;24.60;1.00;;;;;;4918156;29;20048;-51
2023/07/08 01:34:33;;;;;;;3.00;1.77;;;24.60;1.00;;;;;;4918150;29;20032;-51
2023/07/08 01:37:03;;;;;;;2.28;1.40;;;24.60;1.00;;;;;;4918369;29;20570;-49
2023/07/08 01:39:32;;;;;;;3.75;1.73;;;24.60;1.00;;;;;;4918219;29;20036;-49
2023/07/08 01:41:59;;;;;;;2.67;2.00;;;24.60;1.00;;;;;;4918046;29;20051;-48
2023/07/08 01:44:29;;;;;;;4.38;2.00;;;24.60;1.00;;;;;;4916535;29;20488;-51
2023/07/08 01:47:10;;;;;;;4.68;2.10;;;24.60;1.00;;;;;;4916880;29;20047;-52
2023/07/08 01:49:40;;;;;;;4.50;2.20;;;24.60;1.00;;;;;;4911570;29;20048;-51
2023/07/08 01:52:08;;;;;;;3.33;2.17;;;24.60;1.00;;;;;;4916445;29;20044;-51
2023/07/08 01:54:35;;;;;;;3.70;1.83;;;24.60;1.00;;;;;;4916350;29;20543;-51
2023/07/08 01:57:02;;;;;;;5.40;1.77;;;24.60;1.00;;;;;;4917976;29;20036;-50
2023/07/08 01:59:29;;;;;;;2.97;2.22;;;24.60;1.00;;;;;;4908928;29;20470;-48
2023/07/08 02:01:56;;;;;;;2.95;1.95;;;24.60;1.00;;;;;;4916634;29;20044;-50
2023/07/08 02:04:25;;;;;;;2.53;1.63;;;24.50;1.00;;;;;;4916203;29;20167;-48
2023/07/08 02:06:59;;;;;;;3.90;2.20;;;24.50;1.00;;;;;;4917697;29;20040;-48
2023/07/08 02:09:27;;;;;;;2.15;1.70;;;24.50;1.00;;;;;;4916248;29;20053;-48
2023/07/08 02:11:54;;;;;;;2.17;1.50;;;24.50;1.00;;;;;;4917542;29;20532;-48
2023/07/08 02:14:22;;;;;;;4.63;2.60;;;24.50;1.00;;;;;;4917488;29;20104;-48
2023/07/08 02:16:49;;;;;;;3.75;2.30;;;24.50;1.00;;;;;;4916285;29;20499;-50
2023/07/08 02:19:16;;;;;;;3.75;2.58;;;24.50;1.00;;;;;;4916055;29;20085;-48
2023/07/08 02:21:43;;;;;;;2.40;1.63;;;24.50;1.00;;;;;;4916081;29;20048;-49
2023/07/08 02:24:10;;;;;;;3.95;2.42;;;24.50;1.00;;;;;;4915922;29;20249;-53
2023/07/08 02:26:37;;;;;;;2.78;1.45;;;24.50;1.00;;;;;;4917295;29;20048;-49
2023/07/08 02:29:04;;;;;;;2.95;1.95;;;24.50;1.00;;;;;;4915392;29;20099;-48
2023/07/08 02:31:30;;;;;;;3.50;1.85;;;24.50;1.00;;;;;;4908074;29;20138;-48
2023/07/08 02:33:57;;;;;;;5.18;2.30;;;24.50;1.00;;;;;;4917252;29;20568;-47
2023/07/08 02:36:24;;;;;;;4.13;1.80;;;24.50;1.00;;;;;;4927597;29;20106;-48
2023/07/08 02:38:51;;;;;;;4.05;2.00;;;24.50;1.00;;;;;;4936086;29;20052;-51
2023/07/08 02:41:18;;;;;;;4.57;2.17;;;24.50;1.00;;;;;;4934651;29;20067;-49
2023/07/08 02:43:45;;;;;;;5.60;1.98;;;24.50;1.00;;;;;;4934790;29;20075;-48
2023/07/08 02:46:12;;;;;;;2.85;1.85;;;24.50;1.00;;;;;;4934315;29;20051;-50
2023/07/08 02:48:39;;;;;;;3.08;2.05;;;24.40;1.00;;;;;;4936373;29;20051;-52
2023/07/08 02:51:06;;;;;;;3.15;1.70;;;24.40;1.00;;;;;;4934646;29;20048;-49
2023/07/08 02:53:33;;;;;;;3.60;1.80;;;24.40;1.00;;;;;;4908046;29;20091;-48
2023/07/08 02:56:00;;;;;;;3.42;2.28;;;24.40;1.00;;;;;;4915503;29;20174;-49
2023/07/08 02:58:28;;;;;;;2.70;1.83;;;24.40;1.00;;;;;;4915408;29;20068;-48
2023/07/08 03:00:58;;;;;;;5.18;1.77;;;24.40;1.00;;;;;;4916676;29;20123;-52
2023/07/08 03:03:30;;;;;;;5.05;2.33;;;24.40;1.00;;;;;;4916644;29;20052;-48
2023/07/08 03:05:58;;;;;;;3.13;1.70;;;24.40;1.00;;;;;;4915242;29;20044;-48
2023/07/08 03:08:27;;;;;;;2.92;1.90;;;24.40;1.00;;;;;;4916473;29;20044;-48
2023/07/08 03:10:59;;;;;;;3.92;1.73;;;24.40;1.00;;;;;;4915403;29;20052;-48
2023/07/08 03:13:27;;;;;;;;;;;24.40;1.00;;;;;;4915474;29;20055;-53
2023/07/08 03:15:55;;;;;;;3.58;1.88;;;24.40;1.00;;;;;;4914904;29;19932;-49
2023/07/08 03:18:29;;;;;;;4.25;2.20;;;24.40;1.00;;;;;;4915154;29;20076;-48
2023/07/08 03:20:57;;;;;;;4.20;1.80;;;24.40;1.00;;;;;;4915436;29;20054;-48
2023/07/08 03:23:26;;;;;;;2.53;1.52;;;24.40;1.00;;;;;;4913603;29;20059;-51
2023/07/08 03:25:53;;;;;;;3.67;2.22;;;24.30;1.00;;;;;;4913249;29;20044;-54
2023/07/08 03:28:22;;;;;;;4.10;2.20;;;24.30;1.00;;;;;;4914001;29;20151;-48
2023/07/08 03:30:52;;;;;;;3.72;2.15;;;24.40;1.00;;;;;;4914964;29;20139;-48
2023/07/08 03:33:20;;;;;;;3.00;1.70;;;24.40;1.00;;;;;;4914161;29;20465;-48
2023/07/08 03:35:48;;;;;;;2.47;1.85;;;24.30;1.00;;;;;;4916011;29;20083;-48
2023/07/08 03:38:15;;;;;;;3.35;2.38;;;24.30;1.00;;;;;;4914640;29;20051;-49
2023/07/08 03:40:44;;;;;;;2.53;1.63;;;24.30;1.00;;;;;;4914483;29;20424;-50
2023/07/08 03:43:11;;;;;;;6.00;2.55;;;24.30;1.00;;;;;;4914559;29;20048;-49
2023/07/08 03:45:38;;;;;;;4.93;2.22;;;24.30;1.00;;;;;;4914568;29;20107;-49
2023/07/08 03:48:05;;;;;;;3.97;2.08;;;24.30;1.00;;;;;;4914625;29;20100;-52
2023/07/08 03:50:32;;;;;;;2.47;1.67;;;24.30;1.00;;;;;;4914269;29;20059;-48
2023/07/08 03:52:59;;;;;;;3.70;2.28;;;24.30;1.00;;;;;;4915800;29;20064;-50
2023/07/08 03:55:29;;;;;;;3.42;2.33;;;24.30;1.00;;;;;;4914317;29;20048;-49
2023/07/08 03:57:58;;;;;;;3.03;1.85;;;24.30;1.00;;;;;;4914594;29;20050;-49
2023/07/08 04:00:27;;;;;;;2.08;1.58;;;24.30;1.00;;;;;;4914261;29;20067;-48
2023/07/08 04:02:56;;;;;;;5.13;2.75;;;24.20;1.00;;;;;;4914438;29;20052;-50
2023/07/08 04:05:23;;;;;;;3.67;2.40;;;24.30;1.00;;;;;;4915521;29;20047;-48
2023/07/08 04:07:50;;;;;;;3.70;2.10;;;24.30;1.00;;;;;;4914238;29;20099;-49
2023/07/08 04:10:17;;;;;;;2.55;1.80;;;24.20;1.00;;;;;;4915742;29;20052;-49
2023/07/08 04:12:44;;;;;;;3.30;1.77;;;24.20;1.00;;;;;;4915567;29;20046;-50
2023/07/08 04:15:12;;;;;;;2.55;1.92;;;24.20;1.00;;;;;;4915258;29;20488;-49
2023/07/08 04:17:45;;;;;;;3.45;1.90;;;24.20;1.00;;;;;;4915508;29;20417;-49
2023/07/08 04:20:14;;;;;;;;;;;24.20;1.00;;;;;;4915710;29;20064;-49
2023/07/08 04:22:40;;;;;;;2.00;1.52;;;24.20;1.00;;;;;;4915572;29;19926;-51
2023/07/08 04:25:09;;;;;;;4.35;2.05;;;24.20;1.00;;;;;;4915334;29;20048;-48
2023/07/08 04:27:36;;;;;;;2.83;1.85;;;24.20;1.00;;;;;;4915662;29;20099;-50
2023/07/08 04:30:04;;;;;;;4.78;2.22;;;24.20;1.00;;;;;;4915259;29;20048;-49
2023/07/08 04:32:31;;;;;;;4.70;2.25;;;24.20;1.00;;;;;;4913728;29;20040;-49
2023/07/08 04:34:58;;;;;;;4.82;2.13;;;24.20;1.00;;;;;;4914948;29;20063;-49
2023/07/08 04:37:25;;;;;;;3.13;2.55;;;24.20;1.00;;;;;;4915050;29;20468;-50
2023/07/08 04:39:52;;;;;;;3.50;2.45;;;24.20;1.00;;;;;;4918442;29;20494;-53
2023/07/08 04:42:18;;;;;;;4.00;2.22;;;24.20;1.00;;;;;;4918743;29;20040;-49
2023/07/08 04:44:45;;;;;;;3.05;2.10;;;24.20;1.00;;;;;;4919036;29;20046;-49
2023/07/08 04:47:13;;;;;;;3.15;1.80;;;24.20;1.00;;;;;;4919018;29;20261;-48
2023/07/08 04:49:43;;;;;;;4.68;1.90;;;24.20;1.00;;;;;;4917639;29;20163;-49
2023/07/08 04:52:10;;;;;;;3.47;1.98;;;24.20;1.00;;;;;;4918853;29;20096;-49
2023/07/08 04:54:37;;;;;;;4.00;1.85;;;24.20;1.00;;;;;;4918761;29;20036;-48
2023/07/08 04:57:04;;;;;;;5.55;1.98;;;24.20;1.00;;;;;;4919128;29;20071;-48
2023/07/08 04:59:34;;;;;;;2.97;2.17;;;24.20;1.00;;;;;;4918740;29;20048;-49
2023/07/08 05:02:01;;;;;;;3.15;1.85;;;24.20;1.00;;;;;;4918842;29;20068;-48
2023/07/08 05:04:28;;;;;;;2.50;1.92;;;24.20;1.00;;;;;;4918658;29;20413;-49
2023/07/08 05:06:55;;;;;;;2.80;1.92;;;24.20;1.00;;;;;;4919074;29;20054;-49
2023/07/08 05:09:25;;;;;;;4.55;2.22;;;24.10;1.00;;;;;;4918519;29;20070;-48
2023/07/08 05:11:52;;;;;;;4.97;2.28;;;24.20;1.00;;;;;;4918784;29;20496;-48
2023/07/08 05:14:19;;;;;;;3.42;1.77;;;24.20;1.00;;;;;;4918508;29;20131;-51
2023/07/08 05:16:47;;;;;;;2.55;1.50;;;24.10;1.00;;;;;;4918683;29;20400;-49
2023/07/08 05:19:14;;;;;;;3.00;2.15;;;24.10;1.00;;;;;;4918694;29;20396;-49
2023/07/08 05:21:41;;;;;;;3.60;2.05;;;24.10;1.00;;;;;;4911067;29;20080;-49
2023/07/08 05:24:08;;;;;;;4.85;2.15;;;24.10;1.00;;;;;;4918538;29;20222;-50
2023/07/08 05:26:35;;;;;;;3.10;1.90;;;24.10;1.00;;;;;;4918166;29;20051;-49
2023/07/08 05:29:02;;;;;;;5.18;2.53;;;24.10;1.00;;;;;;4918413;29;20076;-48
2023/07/08 05:31:29;;;;;;;2.85;2.00;;;24.10;1.00;;;;;;4918229;29;20465;-50
2023/07/08 05:33:58;;;;;;;3.65;1.95;;;24.10;1.00;;;;;;4918304;29;20032;-48
2023/07/08 05:36:25;;;;;;;3.10;1.80;;;24.10;1.00;;;;;;4918286;29;20469;-49
2023/07/08 05:38:52;;;;;;;5.22;2.35;;;24.10;1.00;;;;;;4918327;29;20397;-51
2023/07/08 05:41:19;;;;;;;3.45;2.35;;;24.10;1.00;;;;;;4917895;29;20050;-49
2023/07/08 05:43:46;;;;;;;3.90;1.95;;;24.10;1.00;;;;;;4918147;29;20070;-48
2023/07/08 05:46:13;;;;;;;2.38;1.63;;;24.10;1.00;;;;;;4917954;29;20051;-48
2023/07/08 05:48:40;;;;;;;3.65;1.98;;;24.10;1.00;;;;;;4925905;29;20076;-50
2023/07/08 05:51:07;;;;;;;4.00;1.65;;;24.10;1.00;;;;;;4917762;29;20453;-48
2023/07/08 05:53:34;;;;;;;3.42;1.92;;;24.10;1.00;;;;;;4917712;29;20055;-48
2023/07/08 05:56:03;;;;;;;3.58;2.10;;;24.10;1.00;;;;;;4917791;29;20040;-50
2023/07/08 05:58:30;;;;;;;4.60;1.77;;;24.10;1.00;;;;;;4918117;29;20126;-48
2023/07/08 06:00:57;;;;;;;3.13;2.00;;;24.10;1.00;;;;;;4917909;29;20123;-51
2023/07/08 06:03:25;;;;;;;3.15;2.15;;;24.10;1.00;;;;;;4926335;29;20051;-48
2023/07/08 06:05:52;;;;;;;4.63;2.13;;;24.10;1.00;;;;;;4936934;29;20391;-48
2023/07/08 06:08:19;;;;;;;2.55;1.70;;;24.10;1.00;;;;;;4936560;29;20571;-48
2023/07/08 06:10:46;;;;;;;4.03;2.72;;;24.10;1.00;;;;;;4936521;29;20063;-52
2023/07/08 06:13:13;;;;;;;2.75;1.60;;;24.10;1.00;;;;;;4936611;29;20122;-51
2023/07/08 06:15:42;;;;;;;3.10;2.08;;;24.10;1.00;;;;;;4917495;29;20047;-51
2023/07/08 06:18:09;;;;;;;3.92;1.63;;;24.10;1.00;;;;;;4917818;29;20464;-48
2023/07/08 06:20:36;;;;;;;4.47;1.85;;;24.20;1.00;;;;;;4917623;29;20044;-51
2023/07/08 06:23:03;;;;;;;2.63;2.00;;;24.20;1.00;;;;;;4917423;29;20048;-49
2023/07/08 06:25:31;;;;;;;3.38;1.80;;;24.20;1.00;;;;;;4917138;29;20142;-47
2023/07/08 06:27:58;;;;;;;3.08;2.03;;;24.20;1.00;;;;;;4917538;29;20040;-48
2023/07/08 06:30:24;;;;;;;3.20;1.83;;;24.20;1.00;;;;;;4917046;29;20075;-50
2023/07/08 06:32:51;;;;;;;3.72;2.10;;;24.20;1.00;;;;;;4917229;29;20043;-47
2023/07/08 06:35:18;;;;;;;2.63;1.80;;;24.20;1.00;;;;;;4917187;29;20042;-48
2023/07/08 06:37:45;;;;;;;4.65;2.08;;;24.20;1.00;;;;;;4909759;29;20036;-52
2023/07/08 06:40:12;;;;;;;3.38;2.15;;;24.20;1.00;;;;;;4917109;29;20052;-47
2023/07/08 06:42:39;;;;;;;3.63;2.20;;;24.20;1.00;;;;;;4916933;29;20072;-48
2023/07/08 06:45:31;;;;;;;3.33;2.17;;;24.20;1.00;;;;;;4917404;29;20052;-50
2023/07/08 06:47:58;;;;;;;3.45;2.20;;;24.20;1.00;;;;;;4935865;29;20039;-49
2023/07/08 06:50:25;;;;;;;2.83;1.55;;;24.20;1.00;;;;;;4935470;29;20063;-49
2023/07/08 06:52:52;;;;;;;2.03;1.50;;;24.30;1.00;;;;;;4935852;29;20050;-50
2023/07/08 06:55:19;;;;;;;4.18;1.67;;;24.30;1.00;;;;;;4935855;29;20111;-50
2023/07/08 06:57:46;;;;;;;2.45;1.67;;;24.30;1.00;;;;;;4932467;29;20456;-48
2023/07/08 07:00:13;;;;;;;3.85;1.98;;;24.30;1.00;;;;;;4916660;29;20268;-50
2023/07/08 07:02:40;;;;;;;3.13;2.00;;;24.30;1.00;;;;;;4915723;29;20052;-52
2023/07/08 07:05:07;;;;;;;2.58;1.92;;;24.30;1.00;;;;;;4916550;29;20051;-51
2023/07/08 07:07:34;;;;;;;4.95;2.05;;;24.30;1.00;;;;;;4916443;29;20054;-53
2023/07/08 07:10:02;;;;;;;3.72;2.38;;;24.30;1.00;;;;;;4916585;29;20044;-50
2023/07/08 07:12:30;;;;;;;2.97;1.90;;;24.30;1.00;;;;;;4916424;29;20050;-49
2023/07/08 07:14:57;;;;;;;2.83;1.70;;;24.30;1.00;;;;;;4921085;29;20036;-52
2023/07/08 07:17:25;;;;;;;3.72;1.80;;;24.30;1.00;;;;;;4935304;29;20047;-50
2023/07/08 07:19:53;;;;;;;2.42;2.13;;;24.30;1.00;;;;;;4935454;29;20095;-49
2023/07/08 07:22:20;;;;;;;5.82;2.20;;;24.40;1.00;;;;;;4935146;29;20048;-48
2023/07/08 07:24:48;;;;;;;4.75;1.98;;;24.30;1.00;;;;;;4908495;29;20067;-50
2023/07/08 07:27:15;;;;;;;2.53;1.90;;;24.40;1.00;;;;;;4916384;29;20136;-51
2023/07/08 07:29:47;;;;;;;4.43;2.03;;;24.40;1.00;;;;;;4916052;29;20052;-48
2023/07/08 07:32:16;;;;;;;3.63;2.28;;;24.40;1.00;;;;;;4916011;29;20658;-48
2023/07/08 07:34:45;;;;;;;3.15;2.10;;;24.40;1.00;;;;;;4915937;29;20214;-51
2023/07/08 07:37:13;;;;;;;3.45;1.90;;;24.40;1.00;;;;;;4916217;29;20121;-53
2023/07/08 07:39:41;;;;;;;3.17;1.60;;;24.40;1.00;;;;;;4916018;29;20088;-54
2023/07/08 07:42:09;;;;;;;2.95;1.83;;;24.40;1.00;;;;;;4915931;29;20048;-52
2023/07/08 07:44:36;;;;;;;5.05;2.00;;;24.40;1.00;;;;;;4915760;29;20428;-52
2023/07/08 07:47:03;;;;;;;8.45;2.85;;;24.40;1.00;;;;;;4916026;29;20047;-49
2023/07/08 07:49:30;;;;;;;2.55;1.77;;;24.50;1.00;;;;;;4915945;29;20055;-51
2023/07/08 07:51:58;;;;;;;2.35;1.67;;;24.50;1.00;;;;;;4928536;29;20048;-54
2023/07/08 07:54:25;;;;;;;3.60;1.60;;;24.50;1.00;;;;;;4934654;29;20066;-49
2023/07/08 07:56:53;;;;;;;2.88;1.95;;;24.50;1.00;;;;;;4934888;29;20067;-52
2023/07/08 07:59:21;;;;;;;3.33;2.03;;;24.50;1.00;;;;;;4934803;29;20048;-51
2023/07/08 08:01:48;;;;;;;3.45;2.08;;;24.50;1.00;;;;;;4934379;29;20039;-51
2023/07/08 08:04:14;;;;;;;4.65;1.70;;;24.50;1.00;;;;;;4934737;29;20499;-52
2023/07/08 08:06:41;;;;;;;3.78;1.98;;;24.50;1.00;;;;;;4934351;29;20054;-55
2023/07/08 08:09:08;;;;;;;3.10;2.10;;;24.50;1.00;;;;;;4934731;29;20403;-49
2023/07/08 08:11:35;;;;;;;4.50;2.40;;;24.60;1.00;;;;;;4934498;29;20075;-48
2023/07/08 08:14:03;;;;;;;2.65;1.70;;;24.60;1.00;;;;;;4934373;29;20055;-48
2023/07/08 08:16:30;;;;;;;3.17;2.13;;;24.60;1.00;;;;;;4934292;29;20468;-47
2023/07/08 08:18:57;;;;;;;2.17;1.52;;;24.60;1.00;;;;;;4934572;29;20044;-49
2023/07/08 08:21:24;;;;;;;3.22;1.80;;;24.60;1.00;;;;;;4934279;29;20526;-51
2023/07/08 08:23:51;;;;;;;3.53;1.80;;;24.60;1.00;;;;;;4934460;29;20118;-49
2023/07/08 08:26:18;;;;;;;4.97;1.80;;;24.60;1.00;;;;;;4934203;29;20110;-50
2023/07/08 08:28:45;;;;;;;2.53;1.80;;;24.60;1.00;;;;;;4934314;29;20483;-48
2023/07/08 08:31:11;;;;;;;4.78;2.42;;;24.60;1.00;;;;;;4934275;29;20304;-48
2023/07/08 08:33:38;;;;;;;2.47;2.03;;;24.60;1.00;;;;;;4934050;29;20058;-47
2023/07/08 08:36:05;;;;;;;4.13;2.45;;;24.60;1.00;;;;;;4934259;29;20035;-48
2023/07/08 08:38:32;;;;;;;3.03;1.90;;;24.60;1.00;;;;;;4932880;29;20471;-48
2023/07/08 08:41:04;;;;;;;2.35;1.60;;;24.60;1.00;;;;;;4934408;29;20054;-50
2023/07/08 08:43:39;;;;;;;4.97;2.10;;;24.60;1.00;;;;;;4934186;29;20059;-47
2023/07/08 08:46:28;;;;;;;2.40;1.58;;;24.60;1.00;;;;;;4934379;29;20042;-51
2023/07/08 08:49:22;;;;;;;3.33;1.75;;;24.60;1.00;;;;;;4907888;29;20041;-47
2023/07/08 08:51:50;;;;;;;2.80;1.95;;;24.60;1.00;;;;;;4914891;29;20048;-49
2023/07/08 08:54:17;;;;;;;3.85;2.25;;;24.60;1.00;;;;;;4915169;29;20072;-48
2023/07/08 08:57:19;;;;;;;2.67;2.15;;;24.60;1.00;;;;;;4915060;29;20127;-47
2023/07/08 08:59:49;;;;;;;3.25;1.65;;;24.60;1.00;;;;;;4906026;29;20056;-47
2023/07/08 09:02:29;;;;;;;5.40;1.85;;;24.60;1.00;;;;;;4914977;29;20044;-52
2023/07/08 09:05:08;;;;;;;5.07;1.80;;;24.60;1.00;;;;;;4915081;29;20280;-48
2023/07/08 09:07:44;;;;;;;2.90;1.95;;;24.60;1.00;;;;;;4915021;29;20044;-48
2023/07/08 09:10:33;;;;;;;3.63;1.90;;;24.60;1.00;;;;;;4915189;29;20044;-50
2023/07/08 09:13:02;;;;;;;3.22;1.80;;;24.70;1.00;;;;;;4911293;29;20095;-47
2023/07/08 09:15:30;;;;;;;3.35;2.10;;;24.70;1.00;;;;;;4933533;29;20496;-49
2023/07/08 09:18:12;;;;;;;3.10;1.92;;;24.60;1.00;;;;;;4934029;29;20484;-47
2023/07/08 09:20:39;;;;;;;3.63;2.25;;;24.70;1.00;;;;;;4933779;29;20161;-49
2023/07/08 09:23:20;;;;;;;3.63;2.30;;;24.70;1.00;;;;;;4933987;29;20075;-50
2023/07/08 09:26:02;;;;;;;2.72;1.92;;;24.70;1.00;;;;;;4936525;29;20039;-48
2023/07/08 09:28:41;;;;;;;3.78;2.13;;;24.70;1.00;;;;;;4937231;29;20043;-49
2023/07/08 09:31:23;;;;;;;2.72;1.95;;;24.70;1.00;;;;;;4937367;29;20048;-47
2023/07/08 09:33:52;;;;;;;4.10;1.75;;;24.70;1.00;;;;;;4937122;29;20126;-47
2023/07/08 09:36:24;;;;;;;2.83;1.80;;;24.70;1.00;;;;;;4937202;29;20118;-49
2023/07/08 09:38:51;;;;;;;3.22;1.98;;;24.70;1.00;;;;;;4937235;29;20043;-51
2023/07/08 09:41:34;;;;;;;2.67;1.90;;;24.70;1.00;;;;;;4937248;29;20039;-50
2023/07/08 09:44:12;;;;;;;3.67;2.25;;;24.70;1.00;;;;;;4911409;29;20067;-50
2023/07/08 09:46:39;;;;;;;3.28;1.70;;;24.70;1.00;;;;;;4918033;29;20040;-48
2023/07/08 09:49:30;;;;;;;3.08;1.85;;;24.70;1.00;;;;;;4918287;29;20040;-52
2023/07/08 09:51:58;;;;;;;2.58;1.63;;;24.70;1.00;;;;;;4917936;29;20050;-51
2023/07/08 09:54:26;;;;;;;3.35;1.83;;;24.70;1.00;;;;;;4925229;29;20526;-50
2023/07/08 09:57:01;;;;;;;4.43;2.30;;;24.70;1.00;;;;;;4937004;29;20040;-48
2023/07/08 09:59:37;;;;;;;5.15;2.10;;;24.70;1.00;;;;;;4921650;29;20040;-49
2023/07/08 10:02:19;;;;;;;4.15;1.77;;;24.70;1.00;;;;;;4917880;29;20044;-48
2023/07/08 10:04:46;;;;;;;2.33;1.58;;;24.70;1.00;;;;;;4917777;29;20504;-48
2023/07/08 10:07:17;;;;;;;4.05;2.17;;;24.80;1.00;;;;;;4917922;29;20040;-48
2023/07/08 10:09:49;;;;;;;3.75;2.20;;;24.80;1.00;;;;;;4917734;29;20062;-47
2023/07/08 10:12:16;;;;;;;4.18;2.17;;;24.80;1.00;;;;;;4925271;29;20080;-50
2023/07/08 10:14:52;;;;;;;6.38;3.13;;;24.80;1.00;;;;;;4917577;29;20389;-50
2023/07/08 10:17:21;;;;;;;3.50;2.40;;;24.80;1.00;;;;;;4917834;29;20516;-49
2023/07/08 10:19:48;;;;;;;3.67;1.98;;;24.80;1.00;;;;;;4917587;29;20119;-47
2023/07/08 10:22:44;;;;;;;4.00;2.22;;;24.80;1.00;;;;;;4916376;29;20075;-47
2023/07/08 10:25:30;;;;;;;3.78;1.77;;;24.80;1.00;;;;;;4911952;29;20047;-50
2023/07/08 10:28:33;;;;;;;5.25;2.20;;;24.80;1.00;;;;;;4917797;29;20072;-50
2023/07/08 10:31:05;;;;;;;3.70;2.00;;;24.80;1.00;;;;;;4912920;29;20056;-48
2023/07/08 10:33:48;;;;;;;2.67;1.92;;;24.80;1.00;;;;;;4917179;29;20052;-48
2023/07/08 10:36:40;;;;;;;2.88;1.85;;;24.80;1.00;;;;;;4916156;29;20040;-48
2023/07/08 10:39:26;;;;;;;3.53;1.63;;;24.80;1.00;;;;;;4917406;29;20044;-49
2023/07/08 10:42:19;;;;;;;2.65;1.88;;;24.80;1.00;;;;;;4916907;29;20119;-48
2023/07/08 10:44:54;;;;;;;2.97;1.87;;;24.80;1.00;;;;;;4907149;29;20052;-50
2023/07/08 10:47:40;;;;;;;3.33;1.60;;;24.70;1.00;;;;;;4931511;29;20282;-49
2023/07/08 10:50:51;;;;;;;2.92;2.33;;;24.80;1.00;;;;;;4909996;29;20493;-50
2023/07/08 10:53:24;;;;;;;3.80;2.10;;;24.80;1.00;;;;;;4896719;29;20572;-49
2023/07/08 10:56:01;;;;;;;3.08;2.13;;;24.80;1.00;;;;;;4915564;29;20119;-51
2023/07/08 10:58:59;;;;;;;3.47;2.45;;;24.80;1.00;;;;;;4933047;29;20094;-53
2023/07/08 11:01:50;;;;;;;3.53;2.13;;;24.80;1.00;;;;;;4925328;29;20062;-54
2023/07/08 11:04:29;;;;;;;2.75;1.85;;;24.80;1.00;;;;;;4936842;29;20044;-50
2023/07/08 11:07:16;;;;;;;6.75;2.42;;;24.80;1.00;;;;;;4921242;29;20071;-53
2023/07/08 11:09:49;;;;;;;4.63;1.77;;;24.80;1.00;;;;;;4919943;29;20040;-53
2023/07/08 11:12:38;;;;;;;3.85;1.80;;;24.80;1.00;;;;;;4917659;29;20515;-54
2023/07/08 11:15:22;;;;;;;2.47;2.28;;;24.80;1.00;;;;;;4917597;29;20508;-54
2023/07/08 11:17:58;;;;;;;3.80;2.40;;;24.80;1.00;;;;;;4917855;29;20123;-55
2023/07/08 11:20:39;;;;;;;3.78;2.25;;;24.80;1.00;;;;;;4918064;29;20040;-54
2023/07/08 11:23:37;;;;;;;2.83;1.92;;;24.80;1.00;;;;;;4910493;29;20543;-53
2023/07/08 11:26:15;;;;;;;3.33;1.80;;;24.80;1.00;;;;;;4917977;29;20051;-53
2023/07/08 11:28:43;;;;;;;4.93;2.15;;;24.80;1.00;;;;;;4917598;29;20556;-53
2023/07/08 11:31:12;;;;;;;2.60;2.15;;;24.80;1.00;;;;;;4922173;29;20460;-54
2023/07/08 11:33:39;;;;;;;3.40;2.50;;;24.80;1.00;;;;;;4936205;29;20051;-54
2023/07/08 11:36:08;;;;;;;3.95;2.63;;;24.80;1.00;;;;;;4936834;29;20042;-54
2023/07/08 11:38:35;;;;;;;4.55;2.28;;;24.80;1.00;;;;;;4921166;29;20487;-52
2023/07/08 11:41:10;;;;;;;3.50;2.47;;;24.80;1.00;;;;;;4916156;29;20081;-48
2023/07/08 11:44:04;;;;;;;4.15;2.10;;;24.80;1.00;;;;;;4940023;29;20050;-49
2023/07/08 11:46:34;;;;;;;3.58;2.10;;;24.80;1.00;;;;;;4940403;29;20048;-54
2023/07/08 11:49:12;;;;;;;3.33;2.08;;;24.80;1.00;;;;;;4912015;29;20050;-53
2023/07/08 11:51:46;;;;;;;4.07;2.25;;;24.80;1.00;;;;;;4920375;29;20420;-54
2023/07/08 11:54:30;;;;;;;2.85;2.13;;;24.80;1.00;;;;;;4919700;29;20072;-54
2023/07/08 11:56:57;;;;;;;2.92;2.03;;;24.80;1.00;;;;;;4939362;29;20130;-49
2023/07/08 11:59:26;;;;;;;5.30;2.20;;;24.80;1.00;;;;;;4939570;29;20051;-52
2023/07/08 12:02:03;;;;;;;3.80;2.20;;;24.80;1.00;;;;;;4936063;29;20130;-53
2023/07/08 12:04:33;;;;;;;4.20;2.30;;;24.80;1.00;;;;;;4919695;29;20037;-52
2023/07/08 12:07:19;;;;;;;10.80;2.28;;;24.80;1.00;;;;;;4920669;29;20036;-51
2023/07/08 12:10:10;;;;;;;3.60;2.30;;;24.80;1.00;;;;;;4921137;29;20059;-53
2023/07/08 12:12:43;;;;;;;3.20;2.30;;;24.80;1.00;;;;;;4916725;29;20055;-54
2023/07/08 12:15:23;;;;;;;3.65;2.88;;;24.80;1.00;;;;;;4908660;29;20095;-53
2023/07/08 12:17:53;;;;;;;3.75;2.63;;;24.80;1.00;;;;;;4915804;29;20048;-53
2023/07/08 12:20:28;;;;;;;4.00;2.03;;;24.80;1.00;;;;;;4915882;29;20523;-53
2023/07/08 12:22:55;;;;;;;4.93;2.38;;;24.80;1.00;;;;;;4915357;29;20409;-55
2023/07/08 12:25:30;;;;;;;3.13;2.38;;;24.80;1.00;;;;;;4915327;29;20044;-54
2023/07/08 12:27:58;;;;;;;2.85;2.17;;;24.80;1.00;;;;;;4915845;29;20103;-54
2023/07/08 12:30:28;;;;;;;3.72;2.10;;;24.80;1.00;;;;;;4915386;29;20052;-54
2023/07/08 12:32:59;;;;;;;2.90;2.25;;;24.80;1.00;;;;;;4933017;29;20066;-50
2023/07/08 12:35:29;;;;;;;2.47;2.00;;;24.80;1.00;;;;;;4933318;29;20044;-51
2023/07/08 12:38:28;;;;;;;4.10;2.53;;;24.80;1.00;;;;;;4934581;29;20055;-52
2023/07/08 12:40:59;;;;;;;3.95;1.98;;;24.80;1.00;;;;;;4927963;29;20535;-49
2023/07/08 12:43:27;;;;;;;3.35;2.42;;;24.80;1.00;;;;;;4934297;29;20055;-50
2023/07/08 12:45:54;;;;;;;2.85;2.17;;;24.80;1.00;;;;;;4933855;29;20052;-55
2023/07/08 12:48:21;;;;;;;3.15;2.45;;;24.80;1.00;;;;;;4934388;29;20066;-52
2023/07/08 12:50:49;;;;;;;3.42;2.58;;;24.80;1.00;;;;;;4933857;29;20043;-47
2023/07/08 12:53:18;;;;;;;6.05;2.03;;;24.80;1.00;;;;;;4934318;29;20512;-51
2023/07/08 12:55:45;;;;;;;2.60;1.83;;;24.80;1.00;;;;;;4933957;29;20048;-50
2023/07/08 12:58:19;;;;;;;5.70;2.78;;;24.80;1.00;;;;;;4934145;29;20047;-54
2023/07/08 13:00:46;;;;;;;3.55;2.13;;;24.80;1.00;;;;;;4937412;29;20047;-54
2023/07/08 13:03:22;;;;;;;3.85;2.00;;;24.80;1.00;;;;;;4937977;29;20411;-51
2023/07/08 13:05:52;;;;;;;4.53;2.90;;;24.80;1.00;;;;;;4938163;29;20107;-51
2023/07/08 13:08:23;;;;;;;3.50;2.42;;;24.80;1.00;;;;;;4938004;29;20039;-50
2023/07/08 13:10:57;;;;;;;4.32;3.13;;;24.80;1.00;;;;;;4920818;29;20436;-54
2023/07/08 13:13:30;;;;;;;3.45;2.30;;;24.80;1.00;;;;;;4918804;29;20583;-50
2023/07/08 13:15:57;;;;;;;3.15;2.45;;;24.80;1.00;;;;;;4918468;29;20040;-53
2023/07/08 13:18:34;;;;;;;4.72;2.22;;;24.80;1.00;;;;;;4918946;29;20501;-52